Time;durP1;ratioP1;P1;durP2;ratioP2;P2;SDS_P1;SDS_P2;PMS_P1;PMS_P2;Temp;Humidity;BMP_temperature;BMP_pressure;BME280_temperature;BME280_humidity;BME280_pressure;Samples;Min_cycle;Max_cycle;Signal;HPM_P1;HPM_P2
2023/03/22 10:11:20;;;;;;;11.90;11.40;;;24.10;64.20;;;;;;6212410;22;1923826;-77
2023/03/22 10:13:57;;;;;;;12.50;11.93;;;24.50;60.40;;;;;;6284146;22;20209;-77
2023/03/22 10:16:27;;;;;;;12.10;11.43;;;24.10;62.10;;;;;;6284349;22;20397;-77
2023/03/22 10:19:00;;;;;;;10.97;10.67;;;23.20;63.70;;;;;;6284273;22;20387;-78
2023/03/22 10:21:27;;;;;;;11.83;11.43;;;22.60;66.00;;;;;;6283856;22;20390;-77
2023/03/22 10:23:56;;;;;;;11.73;11.23;;;22.50;65.70;;;;;;6283972;22;20731;-77
2023/03/22 10:26:29;;;;;;;11.90;11.40;;;22.70;65.60;;;;;;6284022;22;20413;-78
2023/03/22 10:29:02;;;;;;;11.67;11.27;;;22.50;65.80;;;;;;6283625;22;20430;-78
2023/03/22 10:31:29;;;;;;;11.80;11.40;;;22.00;65.80;;;;;;6284156;22;20713;-76
2023/03/22 10:33:59;;;;;;;11.00;10.60;;;21.90;66.10;;;;;;6283869;22;20414;-77
2023/03/22 10:36:33;;;;;;;11.30;10.90;;;21.80;67.60;;;;;;6284072;22;20411;-79
2023/03/22 10:39:04;;;;;;;10.47;10.17;;;22.00;65.10;;;;;;6284075;22;20394;-79
2023/03/22 10:41:34;;;;;;;11.20;10.80;;;22.60;65.50;;;;;;6284048;22;20394;-79
2023/03/22 10:44:03;;;;;;;11.43;11.03;;;23.90;63.30;;;;;;6283580;22;20909;-78
2023/03/22 10:46:36;;;;;;;11.67;11.17;;;24.50;61.10;;;;;;6284052;22;20406;-79
2023/03/22 10:49:05;;;;;;;11.10;10.60;;;24.30;61.60;;;;;;6283865;22;20533;-80
2023/03/22 10:51:37;;;;;;;11.70;11.20;;;24.10;62.70;;;;;;6283675;22;20410;-78
2023/03/22 10:54:04;;;;;;;11.83;11.23;;;24.50;61.30;;;;;;6283584;22;20394;-79
2023/03/22 10:56:32;;;;;;;11.80;11.30;;;23.90;60.60;;;;;;6284506;22;20409;-79
2023/03/22 10:58:59;;;;;;;11.90;11.40;;;24.90;61.10;;;;;;6284531;22;20412;-79
2023/03/22 11:01:30;;;;;;;12.17;11.77;;;26.40;57.90;;;;;;6287979;22;20415;-79
2023/03/22 11:03:59;;;;;;;11.87;11.47;;;27.00;55.90;;;;;;6302006;22;20391;-78
2023/03/22 11:06:31;;;;;;;12.43;12.03;;;26.90;55.10;;;;;;6301620;22;20406;-78
2023/03/22 11:09:00;;;;;;;11.83;11.43;;;27.30;55.10;;;;;;6275151;22;20474;-79
2023/03/22 11:11:29;;;;;;;12.70;12.20;;;27.60;54.10;;;;;;6256164;23;20443;-80
2023/03/22 11:14:02;;;;;;;11.63;11.20;;;27.10;53.30;;;;;;6252018;23;20407;-79
2023/03/22 11:16:31;;;;;;;12.40;11.70;;;26.00;54.90;;;;;;6253030;23;20869;-80
2023/03/22 11:19:00;;;;;;;11.40;11.00;;;26.60;54.30;;;;;;6247708;23;20407;-78
2023/03/22 11:21:31;;;;;;;12.50;12.00;;;26.10;54.50;;;;;;6247059;23;20400;-78
2023/03/22 11:24:01;;;;;;;12.47;11.70;;;25.60;55.20;;;;;;6246360;23;20422;-78
2023/03/22 11:26:32;;;;;;;11.90;11.50;;;25.80;55.10;;;;;;6246349;23;20404;-78
2023/03/22 11:29:08;;;;;;;12.60;12.10;;;25.30;55.40;;;;;;6245815;23;20454;-78
2023/03/22 11:31:54;;;;;;;11.43;11.03;;;24.90;56.20;;;;;;6245532;23;20771;-76
2023/03/22 11:34:22;;;;;;;11.57;11.10;;;24.50;56.40;;;;;;6245733;23;20482;-76
2023/03/22 11:36:55;;;;;;;11.20;10.73;;;24.00;56.10;;;;;;6245959;23;20408;-77
2023/03/22 11:39:23;;;;;;;10.70;10.40;;;23.60;56.30;;;;;;6245629;23;20388;-77
2023/03/22 11:41:50;;;;;;;11.00;10.60;;;23.70;56.40;;;;;;6246017;22;20412;-77
2023/03/22 11:44:21;;;;;;;11.70;11.20;;;24.40;55.60;;;;;;6246096;23;20442;-78
2023/03/22 11:46:51;;;;;;;11.70;11.10;;;25.30;53.80;;;;;;6246070;23;20667;-78
2023/03/22 11:49:18;;;;;;;12.00;11.50;;;25.70;53.70;;;;;;6245919;23;20517;-78
2023/03/22 11:51:45;;;;;;;11.60;11.20;;;25.80;53.70;;;;;;6245619;23;20522;-78
2023/03/22 11:54:18;;;;;;;11.90;11.50;;;26.80;52.00;;;;;;6245833;23;20408;-78
2023/03/22 11:56:47;;;;;;;11.77;11.43;;;28.10;49.50;;;;;;6245855;23;20392;-78
2023/03/22 11:59:16;;;;;;;11.80;11.40;;;28.50;47.20;;;;;;6245773;23;20404;-78
2023/03/22 12:01:48;;;;;;;12.20;11.70;;;28.80;46.00;;;;;;6245446;23;20917;-77
2023/03/22 12:04:21;;;;;;;11.93;11.53;;;27.90;46.20;;;;;;6245494;23;20881;-77
2023/03/22 12:06:49;;;;;;;12.20;11.80;;;27.30;46.70;;;;;;6245101;23;20392;-78
2023/03/22 12:09:25;;;;;;;12.53;11.93;;;27.30;46.70;;;;;;6245097;22;20454;-77
2023/03/22 12:11:56;;;;;;;12.27;11.77;;;27.60;46.50;;;;;;6245634;23;20450;-78
2023/03/22 12:14:25;;;;;;;11.77;11.37;;;26.70;47.50;;;;;;6246051;23;20408;-77
2023/03/22 12:16:58;;;;;;;11.50;11.10;;;26.30;47.30;;;;;;6245814;22;20408;-76
2023/03/22 12:19:38;;;;;;;11.80;11.30;;;26.10;46.50;;;;;;6246154;23;20391;-76
2023/03/22 12:22:11;;;;;;;11.80;11.40;;;26.20;46.10;;;;;;6245538;23;20392;-76
2023/03/22 12:24:37;;;;;;;12.30;11.90;;;26.50;45.60;;;;;;6246049;23;20399;-78
2023/03/22 12:27:13;;;;;;;11.60;11.20;;;26.90;44.60;;;;;;6245902;23;20415;-77
2023/03/22 12:29:46;;;;;;;12.00;11.60;;;26.50;43.60;;;;;;6245606;23;20435;-77
2023/03/22 12:32:19;;;;;;;11.73;11.33;;;25.80;44.10;;;;;;6246093;23;20411;-77
2023/03/22 12:34:48;;;;;;;11.70;11.30;;;24.70;45.30;;;;;;6246209;23;20396;-77
2023/03/22 12:37:21;;;;;;;10.90;10.60;;;23.90;45.50;;;;;;6246191;22;20410;-76
2023/03/22 12:39:51;;;;;;;11.13;10.73;;;24.00;46.70;;;;;;6245682;23;20886;-76
2023/03/22 12:42:22;;;;;;;11.50;11.10;;;24.70;46.40;;;;;;6246101;23;20400;-76
2023/03/22 12:44:51;;;;;;;11.30;10.90;;;25.20;46.30;;;;;;6245584;23;20384;-76
2023/03/22 12:47:24;;;;;;;11.30;10.90;;;25.60;44.90;;;;;;6245462;23;20404;-76
2023/03/22 12:49:59;;;;;;;11.40;10.90;;;25.70;43.30;;;;;;6245825;23;20752;-76
2023/03/22 12:52:32;;;;;;;11.60;11.20;;;25.50;43.80;;;;;;6245344;23;20715;-76
2023/03/22 12:55:01;;;;;;;11.67;11.27;;;25.60;43.40;;;;;;6245878;23;20393;-76
2023/03/22 12:57:28;;;;;;;11.63;11.23;;;26.30;43.10;;;;;;6245548;23;20454;-76
2023/03/22 12:59:59;;;;;;;11.20;10.90;;;26.00;43.30;;;;;;6245172;23;20404;-77
2023/03/22 13:02:30;;;;;;;11.63;11.23;;;25.60;44.00;;;;;;6245109;23;20392;-77
2023/03/22 13:04:59;;;;;;;11.20;10.90;;;25.60;44.20;;;;;;6245647;23;20399;-76
2023/03/22 13:07:37;;;;;;;11.23;10.90;;;25.40;44.70;;;;;;6245675;23;20411;-77
2023/03/22 13:10:40;;;;;;;11.37;11.07;;;25.40;45.00;;;;;;6245268;23;20443;-76
2023/03/22 13:13:14;;;;;;;11.33;11.03;;;25.80;44.10;;;;;;6245494;23;20411;-75
2023/03/22 13:15:57;;;;;;;11.63;11.23;;;26.40;43.00;;;;;;6245690;23;20399;-74
2023/03/22 13:18:55;;;;;;;11.90;11.50;;;27.30;42.60;;;;;;6245586;23;20388;-76
2023/03/22 13:21:25;;;;;;;11.87;11.47;;;27.90;41.20;;;;;;6245479;22;20400;-75
2023/03/22 13:23:59;;;;;;;11.97;11.57;;;28.20;40.50;;;;;;6245511;23;20404;-75
2023/03/22 13:26:38;;;;;;;11.77;11.37;;;28.30;40.20;;;;;;6245477;23;20394;-77
2023/03/22 13:29:15;;;;;;;12.77;12.27;;;27.90;40.30;;;;;;6244989;23;20384;-77
2023/03/22 13:31:44;;;;;;;12.20;11.80;;;26.80;41.90;;;;;;6245418;23;20392;-76
2023/03/22 13:34:18;;;;;;;11.73;11.23;;;26.20;42.80;;;;;;6245273;23;20403;-77
2023/03/22 13:36:50;;;;;;;11.77;11.37;;;25.80;43.70;;;;;;6245159;23;20384;-76
2023/03/22 13:39:18;;;;;;;11.23;10.93;;;25.00;44.80;;;;;;6245319;23;20396;-75
2023/03/22 13:41:48;;;;;;;11.67;11.27;;;24.30;45.80;;;;;;6245212;23;20411;-76
2023/03/22 13:44:28;;;;;;;12.03;11.53;;;24.20;46.10;;;;;;6245460;22;20411;-76
2023/03/22 13:47:00;;;;;;;11.20;10.80;;;23.70;45.60;;;;;;6244876;23;20886;-75
2023/03/22 13:49:53;;;;;;;11.77;11.23;;;23.80;46.10;;;;;;6245199;23;20845;-75
2023/03/22 13:52:26;;;;;;;11.10;10.70;;;23.80;46.00;;;;;;6245417;23;20752;-75
2023/03/22 13:54:56;;;;;;;11.10;10.70;;;23.20;46.70;;;;;;6245590;23;20411;-77
2023/03/22 13:57:38;;;;;;;10.97;10.60;;;23.20;47.30;;;;;;6245269;23;20482;-75
2023/03/22 14:00:17;;;;;;;11.03;10.70;;;23.30;46.80;;;;;;6245314;23;20391;-75
2023/03/22 14:02:45;;;;;;;11.43;10.83;;;23.40;46.60;;;;;;6245009;23;20396;-75
2023/03/22 14:05:16;;;;;;;11.57;11.07;;;23.40;46.30;;;;;;6245237;23;20407;-76
2023/03/22 14:07:46;;;;;;;10.77;10.47;;;23.50;46.60;;;;;;6244876;22;20388;-77
2023/03/22 14:10:18;;;;;;;10.80;10.40;;;23.10;46.60;;;;;;6244469;23;21134;-76
2023/03/22 14:12:51;;;;;;;11.43;11.03;;;23.00;47.20;;;;;;6245244;23;20384;-75
2023/03/22 14:15:21;;;;;;;10.77;10.47;;;22.80;47.50;;;;;;6245300;23;20400;-76
2023/03/22 14:17:52;;;;;;;11.60;10.87;;;22.40;47.70;;;;;;6245154;23;20419;-76
2023/03/22 14:20:24;;;;;;;10.50;10.20;;;22.30;48.10;;;;;;6245212;23;20388;-76
2023/03/22 14:22:55;;;;;;;12.00;11.40;;;22.10;48.60;;;;;;6245179;23;20851;-77
2023/03/22 14:25:27;;;;;;;10.70;10.40;;;22.00;49.50;;;;;;6245150;23;20401;-75
2023/03/22 14:27:54;;;;;;;10.90;10.60;;;21.90;49.40;;;;;;6245064;23;20389;-76
2023/03/22 14:30:36;;;;;;;10.30;10.00;;;21.90;49.60;;;;;;6244991;23;20816;-76
2023/03/22 14:33:07;;;;;;;10.40;10.10;;;21.90;50.00;;;;;;6245319;23;20877;-76
2023/03/22 14:35:37;;;;;;;10.83;10.43;;;21.80;48.80;;;;;;6245215;23;20535;-76
2023/03/22 14:38:08;;;;;;;10.60;10.30;;;21.80;48.60;;;;;;6245168;23;20395;-77
2023/03/22 14:40:36;;;;;;;10.60;10.30;;;21.80;48.80;;;;;;6245484;23;20399;-76
2023/03/22 14:43:21;;;;;;;10.90;10.50;;;21.80;48.20;;;;;;6244629;23;20899;-76
2023/03/22 14:45:50;;;;;;;10.73;10.33;;;21.90;48.80;;;;;;6245367;23;20392;-76
2023/03/22 14:48:22;;;;;;;10.33;10.03;;;21.80;49.70;;;;;;6247128;23;20729;-74
2023/03/22 14:50:53;;;;;;;11.03;10.60;;;21.70;49.70;;;;;;6247431;23;20431;-76
2023/03/22 14:53:30;;;;;;;10.63;10.23;;;21.60;49.50;;;;;;6247131;23;20403;-76
2023/03/22 14:55:57;;;;;;;11.07;10.70;;;21.50;50.30;;;;;;6246950;23;20395;-76
2023/03/22 14:58:31;;;;;;;10.83;10.43;;;21.50;50.60;;;;;;6246800;23;20414;-77
2023/03/22 15:01:00;;;;;;;10.83;10.43;;;21.30;50.90;;;;;;6246826;23;20388;-76
2023/03/22 15:03:30;;;;;;;10.90;10.40;;;21.30;51.20;;;;;;6246455;22;20903;-76
2023/03/22 15:05:59;;;;;;;10.97;10.57;;;21.20;51.10;;;;;;6246878;23;20462;-76
2023/03/22 15:08:28;;;;;;;11.17;10.67;;;21.30;51.10;;;;;;6246539;22;20474;-76
2023/03/22 15:10:58;;;;;;;10.50;10.20;;;21.30;51.30;;;;;;6246144;22;20448;-76
2023/03/22 15:13:26;;;;;;;10.93;10.53;;;21.30;51.80;;;;;;6246729;23;20412;-74
2023/03/22 15:15:54;;;;;;;11.10;10.70;;;21.30;51.70;;;;;;6246639;23;20408;-74
2023/03/22 15:18:23;;;;;;;10.80;10.40;;;21.20;51.80;;;;;;6246684;23;20403;-75
2023/03/22 15:20:52;;;;;;;10.93;10.53;;;21.10;51.80;;;;;;6246641;23;20407;-75
2023/03/22 15:23:22;;;;;;;11.50;11.10;;;21.00;52.00;;;;;;6246399;22;20408;-74
2023/03/22 15:25:57;;;;;;;11.40;11.00;;;20.90;52.60;;;;;;6246592;22;20407;-75
2023/03/22 15:28:26;;;;;;;11.40;11.00;;;20.90;52.60;;;;;;6250573;23;20395;-75
2023/03/22 15:30:54;;;;;;;11.03;10.63;;;20.80;52.70;;;;;;6252106;23;20470;-75
2023/03/22 15:33:23;;;;;;;11.40;10.87;;;20.80;52.90;;;;;;6246735;23;20540;-76
2023/03/22 15:35:51;;;;;;;11.20;10.80;;;20.80;53.50;;;;;;6246744;23;20463;-75
2023/03/22 15:38:27;;;;;;;11.07;10.67;;;20.70;53.80;;;;;;6246646;23;20419;-75
2023/03/22 15:40:54;;;;;;;11.60;11.13;;;20.60;53.80;;;;;;6246875;23;20388;-75
2023/03/22 15:43:24;;;;;;;11.50;11.00;;;20.50;54.50;;;;;;6246112;23;20942;-75
2023/03/22 15:46:14;;;;;;;10.90;10.50;;;20.50;55.00;;;;;;6246565;22;20439;-75
2023/03/22 15:48:42;;;;;;;11.60;11.20;;;20.50;55.30;;;;;;6246306;23;20435;-75
2023/03/22 15:51:13;;;;;;;11.50;11.10;;;20.40;55.60;;;;;;6246484;22;20757;-75
2023/03/22 15:53:41;;;;;;;11.57;10.87;;;20.40;55.60;;;;;;6245844;23;20479;-76
2023/03/22 15:56:22;;;;;;;11.63;11.23;;;20.30;55.20;;;;;;6246372;23;20408;-76
2023/03/22 15:58:54;;;;;;;10.90;10.60;;;20.20;55.50;;;;;;6246336;23;20411;-76
2023/03/22 16:01:21;;;;;;;10.93;10.53;;;20.20;55.70;;;;;;6246300;23;20394;-75
2023/03/22 16:03:54;;;;;;;10.77;10.37;;;20.10;54.90;;;;;;6246422;23;20771;-74
2023/03/22 16:06:22;;;;;;;12.03;11.53;;;20.00;55.50;;;;;;6246501;23;20403;-76
2023/03/22 16:08:50;;;;;;;11.00;10.50;;;19.90;55.80;;;;;;6246250;22;20432;-75
2023/03/22 16:11:19;;;;;;;10.57;10.27;;;19.90;56.00;;;;;;6245524;23;20455;-76
2023/03/22 16:13:45;;;;;;;10.63;10.33;;;19.80;56.00;;;;;;6246172;23;20733;-76
2023/03/22 16:16:15;;;;;;;10.97;10.63;;;19.80;56.00;;;;;;6246171;23;20408;-76
2023/03/22 16:18:42;;;;;;;11.00;10.30;;;19.70;56.10;;;;;;6245390;22;20916;-76
2023/03/22 16:21:11;;;;;;;11.07;10.37;;;19.70;56.30;;;;;;6245870;23;20407;-76
2023/03/22 16:23:38;;;;;;;24.63;11.67;;;19.60;56.70;;;;;;6246013;22;20451;-75
2023/03/22 16:26:13;;;;;;;11.10;10.60;;;19.50;56.90;;;;;;6247896;23;20400;-75
2023/03/22 16:28:39;;;;;;;10.27;9.87;;;19.40;56.70;;;;;;6246530;23;20391;-75
2023/03/22 16:31:10;;;;;;;10.33;9.90;;;19.30;56.10;;;;;;6245457;23;20955;-75
2023/03/22 16:33:38;;;;;;;10.17;9.77;;;19.20;57.40;;;;;;6245972;23;20388;-76
2023/03/22 16:36:07;;;;;;;10.40;9.77;;;19.10;57.60;;;;;;6245795;23;20415;-77
2023/03/22 16:38:34;;;;;;;10.17;9.77;;;19.00;56.90;;;;;;6245521;23;20447;-74
2023/03/22 16:41:02;;;;;;;10.20;9.80;;;18.90;57.00;;;;;;6245341;23;20410;-75
2023/03/22 16:43:30;;;;;;;10.47;10.07;;;18.80;57.60;;;;;;6245699;23;20435;-75
2023/03/22 16:45:59;;;;;;;10.77;10.27;;;18.70;58.00;;;;;;6245361;23;20895;-74
2023/03/22 16:48:26;;;;;;;11.20;10.70;;;18.70;58.50;;;;;;6245789;22;20466;-76
2023/03/22 16:50:54;;;;;;;10.83;10.33;;;18.60;58.60;;;;;;6245539;23;20444;-76
2023/03/22 16:53:21;;;;;;;10.30;9.90;;;18.50;59.20;;;;;;6245914;23;20411;-76
2023/03/22 16:55:48;;;;;;;10.50;10.10;;;18.40;59.50;;;;;;6245604;23;20412;-76
2023/03/22 16:58:16;;;;;;;10.63;10.23;;;18.30;59.70;;;;;;6245464;23;20912;-73
2023/03/22 17:00:44;;;;;;;10.13;9.73;;;18.20;60.10;;;;;;6245834;22;20762;-77
2023/03/22 17:03:15;;;;;;;11.00;10.17;;;18.10;60.50;;;;;;6245623;23;20412;-76
2023/03/22 17:05:42;;;;;;;10.23;9.83;;;18.00;61.00;;;;;;6245369;23;20848;-76
2023/03/22 17:08:17;;;;;;;10.90;10.40;;;18.10;61.30;;;;;;6244855;22;20720;-76
2023/03/22 17:10:45;;;;;;;9.70;9.40;;;18.00;61.60;;;;;;6244925;23;20458;-76
2023/03/22 17:13:14;;;;;;;10.23;9.83;;;17.80;62.30;;;;;;6244931;23;20415;-75
2023/03/22 17:15:45;;;;;;;10.40;9.70;;;17.70;62.50;;;;;;6245484;23;20727;-74
2023/03/22 17:18:12;;;;;;;10.50;10.10;;;17.60;63.40;;;;;;6245421;23;20404;-76
2023/03/22 17:20:39;;;;;;;11.00;10.60;;;17.50;63.80;;;;;;6245435;23;20707;-75
2023/03/22 17:23:08;;;;;;;10.87;10.30;;;17.40;64.70;;;;;;6245333;23;20408;-75
2023/03/22 17:25:37;;;;;;;10.60;10.20;;;17.30;65.30;;;;;;6245213;23;20408;-76
2023/03/22 17:28:05;;;;;;;10.80;10.20;;;17.30;65.80;;;;;;6245381;23;20415;-76
2023/03/22 17:30:33;;;;;;;10.63;10.23;;;17.10;66.20;;;;;;6245274;22;20494;-77
2023/03/22 17:33:01;;;;;;;10.93;10.37;;;17.10;66.80;;;;;;6245273;23;20403;-74
2023/03/22 17:35:29;;;;;;;10.70;10.30;;;17.00;67.30;;;;;;6245345;23;20404;-75
2023/03/22 17:37:56;;;;;;;10.80;10.40;;;17.00;68.30;;;;;;6245246;23;20462;-74
2023/03/22 17:40:23;;;;;;;11.70;10.90;;;17.00;68.80;;;;;;6245385;23;20438;-75
2023/03/22 17:42:50;;;;;;;11.37;10.80;;;16.90;69.60;;;;;;6245357;23;20483;-76
2023/03/22 17:45:20;;;;;;;10.70;10.23;;;16.80;70.70;;;;;;6244805;23;20852;-75
2023/03/22 17:47:47;;;;;;;11.10;10.63;;;16.70;71.70;;;;;;6245363;23;20412;-75
2023/03/22 17:50:15;;;;;;;11.53;10.90;;;16.60;73.20;;;;;;6245365;23;20408;-76
2023/03/22 17:52:42;;;;;;;11.43;10.70;;;16.50;74.40;;;;;;6245001;22;20455;-75
2023/03/22 17:55:15;;;;;;;11.87;11.17;;;16.40;75.40;;;;;;6244853;23;20910;-75
2023/03/22 17:57:42;;;;;;;11.27;10.77;;;16.40;76.70;;;;;;6245142;23;20400;-76
